sensor_id;sensor_type;location;lat;lon;timestamp;pressure;altitude;pressure_sealevel;temperature;humidity
4570;BME280;2297;51.442;6.996;2022-09-28T00:00:17;98288.00;;;9.29;66.42
4570;BME280;2297;51.442;6.996;2022-09-28T00:02:43;98293.81;;;9.36;66.32
4570;BME280;2297;51.442;6.996;2022-09-28T00:05:10;98288.84;;;9.30;66.52
4570;BME280;2297;51.442;6.996;2022-09-28T00:07:38;98281.72;;;9.32;65.94
4570;BME280;2297;51.442;6.996;2022-09-28T00:10:06;98281.28;;;9.41;65.75
4570;BME280;2297;51.442;6.996;2022-09-28T00:12:33;98285.75;;;9.39;66.31
4570;BME280;2297;51.442;6.996;2022-09-28T00:15:00;98288.88;;;9.11;66.40
4570;BME280;2297;51.442;6.996;2022-09-28T00:17:27;98279.75;;;9.18;66.07
4570;BME280;2297;51.442;6.996;2022-09-28T00:19:55;98271.91;;;9.17;65.81
4570;BME280;2297;51.442;6.996;2022-09-28T00:22:22;98275.19;;;9.22;65.98
4570;BME280;2297;51.442;6.996;2022-09-28T00:24:50;98269.53;;;9.12;66.07
4570;BME280;2297;51.442;6.996;2022-09-28T00:27:16;98266.50;;;9.20;65.59
4570;BME280;2297;51.442;6.996;2022-09-28T00:29:43;98268.06;;;9.24;65.51
4570;BME280;2297;51.442;6.996;2022-09-28T00:32:11;98265.72;;;9.18;65.55
4570;BME280;2297;51.442;6.996;2022-09-28T00:34:41;98270.41;;;9.30;65.43
4570;BME280;2297;51.442;6.996;2022-09-28T00:37:11;98267.47;;;9.36;65.25
4570;BME280;2297;51.442;6.996;2022-09-28T00:39:38;98269.19;;;9.37;65.31
4570;BME280;2297;51.442;6.996;2022-09-28T00:42:12;98269.19;;;9.37;65.33
4570;BME280;2297;51.442;6.996;2022-09-28T00:44:42;98262.03;;;9.22;65.79
4570;BME280;2297;51.442;6.996;2022-09-28T00:47:18;98262.50;;;9.30;65.77
4570;BME280;2297;51.442;6.996;2022-09-28T00:49:50;98264.38;;;9.28;65.57
4570;BME280;2297;51.442;6.996;2022-09-28T00:52:22;98262.06;;;9.39;65.42
4570;BME280;2297;51.442;6.996;2022-09-28T00:54:51;98258.50;;;9.40;65.41
4570;BME280;2297;51.442;6.996;2022-09-28T00:57:21;98260.16;;;9.24;65.57
4570;BME280;2297;51.442;6.996;2022-09-28T00:59:48;98252.19;;;9.06;66.07
4570;BME280;2297;51.442;6.996;2022-09-28T01:02:16;98250.41;;;9.26;65.67
4570;BME280;2297;51.442;6.996;2022-09-28T01:04:43;98255.97;;;9.20;65.73
4570;BME280;2297;51.442;6.996;2022-09-28T01:07:11;98254.84;;;9.06;65.92
4570;BME280;2297;51.442;6.996;2022-09-28T01:09:38;98258.75;;;8.78;66.23
4570;BME280;2297;51.442;6.996;2022-09-28T01:12:05;98262.25;;;8.98;66.21
4570;BME280;2297;51.442;6.996;2022-09-28T01:14:34;98260.41;;;9.00;66.37
4570;BME280;2297;51.442;6.996;2022-09-28T01:17:06;98248.81;;;9.04;66.10
4570;BME280;2297;51.442;6.996;2022-09-28T01:19:54;98258.06;;;8.94;66.19
4570;BME280;2297;51.442;6.996;2022-09-28T01:22:41;98248.28;;;8.96;66.16
4570;BME280;2297;51.442;6.996;2022-09-28T01:25:23;98235.34;;;9.10;66.01
4570;BME280;2297;51.442;6.996;2022-09-28T01:27:53;98245.38;;;9.02;65.60
4570;BME280;2297;51.442;6.996;2022-09-28T01:30:23;98243.34;;;8.90;65.42
4570;BME280;2297;51.442;6.996;2022-09-28T01:32:52;98242.63;;;8.86;65.66
4570;BME280;2297;51.442;6.996;2022-09-28T01:35:25;98248.38;;;8.94;65.87
4570;BME280;2297;51.442;6.996;2022-09-28T01:37:56;98241.03;;;9.01;65.32
4570;BME280;2297;51.442;6.996;2022-09-28T01:40:26;98241.19;;;8.98;65.56
4570;BME280;2297;51.442;6.996;2022-09-28T01:43:01;98241.13;;;9.00;65.63
4570;BME280;2297;51.442;6.996;2022-09-28T01:45:31;98239.03;;;9.06;65.65
4570;BME280;2297;51.442;6.996;2022-09-28T01:48:01;98244.59;;;9.19;65.45
4570;BME280;2297;51.442;6.996;2022-09-28T01:50:35;98247.56;;;9.11;64.91
4570;BME280;2297;51.442;6.996;2022-09-28T01:53:06;98243.22;;;9.10;65.06
4570;BME280;2297;51.442;6.996;2022-09-28T01:55:37;98237.75;;;9.15;65.07
4570;BME280;2297;51.442;6.996;2022-09-28T01:58:10;98241.03;;;9.01;65.31
4570;BME280;2297;51.442;6.996;2022-09-28T02:00:41;98236.41;;;9.06;65.23
4570;BME280;2297;51.442;6.996;2022-09-28T02:03:11;98233.00;;;9.04;65.27
4570;BME280;2297;51.442;6.996;2022-09-28T02:05:45;98243.09;;;8.94;65.46
4570;BME280;2297;51.442;6.996;2022-09-28T02:08:18;98242.47;;;8.89;66.01
4570;BME280;2297;51.442;6.996;2022-09-28T02:10:51;98245.75;;;8.75;66.29
4570;BME280;2297;51.442;6.996;2022-09-28T02:13:25;98243.47;;;8.87;65.98
4570;BME280;2297;51.442;6.996;2022-09-28T02:15:58;98239.06;;;8.87;66.09
4570;BME280;2297;51.442;6.996;2022-09-28T02:18:28;98246.72;;;8.92;65.94
4570;BME280;2297;51.442;6.996;2022-09-28T02:21:00;98247.31;;;8.79;66.03
4570;BME280;2297;51.442;6.996;2022-09-28T02:23:34;98244.59;;;8.81;66.17
4570;BME280;2297;51.442;6.996;2022-09-28T02:26:05;98245.31;;;8.85;66.06
4570;BME280;2297;51.442;6.996;2022-09-28T02:28:35;98243.34;;;8.90;65.72
4570;BME280;2297;51.442;6.996;2022-09-28T02:31:02;98251.72;;;8.98;65.38
4570;BME280;2297;51.442;6.996;2022-09-28T02:33:31;98241.03;;;9.01;65.36
4570;BME280;2297;51.442;6.996;2022-09-28T02:36:00;98237.28;;;9.07;64.88
4570;BME280;2297;51.442;6.996;2022-09-28T02:38:28;98245.53;;;8.99;64.70
4570;BME280;2297;51.442;6.996;2022-09-28T02:41:01;98239.56;;;8.95;65.01
4570;BME280;2297;51.442;6.996;2022-09-28T02:43:33;98246.59;;;8.95;65.08
4570;BME280;2297;51.442;6.996;2022-09-28T02:46:13;98248.94;;;8.82;65.58
4570;BME280;2297;51.442;6.996;2022-09-28T02:48:53;98249.94;;;8.98;65.34
4570;BME280;2297;51.442;6.996;2022-09-28T02:51:29;98253.94;;;8.88;65.17
4570;BME280;2297;51.442;6.996;2022-09-28T02:54:20;98257.56;;;8.86;65.28
4570;BME280;2297;51.442;6.996;2022-09-28T02:56:57;98258.41;;;8.67;65.87
4570;BME280;2297;51.442;6.996;2022-09-28T02:59:39;98256.47;;;8.71;65.43
4570;BME280;2297;51.442;6.996;2022-09-28T03:02:18;98258.91;;;8.75;65.35
4570;BME280;2297;51.442;6.996;2022-09-28T03:05:05;98253.25;;;8.64;65.30
4570;BME280;2297;51.442;6.996;2022-09-28T03:07:39;98256.28;;;8.75;65.28
4570;BME280;2297;51.442;6.996;2022-09-28T03:10:12;98250.75;;;8.81;65.08
4570;BME280;2297;51.442;6.996;2022-09-28T03:12:40;98246.59;;;8.76;64.78
4570;BME280;2297;51.442;6.996;2022-09-28T03:15:10;98252.28;;;8.67;65.01
4570;BME280;2297;51.442;6.996;2022-09-28T03:17:39;98251.69;;;8.60;64.70
4570;BME280;2297;51.442;6.996;2022-09-28T03:20:08;98246.41;;;8.60;65.07
4570;BME280;2297;51.442;6.996;2022-09-28T03:22:35;98249.84;;;8.62;64.99
4570;BME280;2297;51.442;6.996;2022-09-28T03:25:02;98247.28;;;8.60;64.90
4570;BME280;2297;51.442;6.996;2022-09-28T03:27:28;98247.88;;;8.67;64.97
4570;BME280;2297;51.442;6.996;2022-09-28T03:29:55;98246.03;;;8.69;64.96
4570;BME280;2297;51.442;6.996;2022-09-28T03:32:24;98250.09;;;8.76;65.02
4570;BME280;2297;51.442;6.996;2022-09-28T03:34:52;98244.41;;;8.86;64.59
4570;BME280;2297;51.442;6.996;2022-09-28T03:37:19;98247.13;;;8.84;64.64
4570;BME280;2297;51.442;6.996;2022-09-28T03:39:46;98257.13;;;8.95;64.25
4570;BME280;2297;51.442;6.996;2022-09-28T03:42:12;98243.97;;;8.95;64.33
4570;BME280;2297;51.442;6.996;2022-09-28T03:44:39;98257.41;;;8.89;64.38
4570;BME280;2297;51.442;6.996;2022-09-28T03:47:06;98255.69;;;8.88;64.52
4570;BME280;2297;51.442;6.996;2022-09-28T03:49:32;98258.13;;;8.92;64.43
4570;BME280;2297;51.442;6.996;2022-09-28T03:52:01;98255.28;;;8.97;64.42
4570;BME280;2297;51.442;6.996;2022-09-28T03:54:28;98256.28;;;8.94;64.35
4570;BME280;2297;51.442;6.996;2022-09-28T03:56:55;98256.94;;;8.80;64.87
4570;BME280;2297;51.442;6.996;2022-09-28T03:59:21;98251.34;;;8.87;64.96
4570;BME280;2297;51.442;6.996;2022-09-28T04:01:48;98255.28;;;8.97;64.80
4570;BME280;2297;51.442;6.996;2022-09-28T04:04:15;98249.16;;;8.96;64.32
4570;BME280;2297;51.442;6.996;2022-09-28T04:06:42;98254.59;;;8.93;64.67
4570;BME280;2297;51.442;6.996;2022-09-28T04:09:10;98251.94;;;8.93;64.42
4570;BME280;2297;51.442;6.996;2022-09-28T04:11:37;98256.44;;;8.72;65.15
4570;BME280;2297;51.442;6.996;2022-09-28T04:14:03;98259.81;;;8.74;65.46
4570;BME280;2297;51.442;6.996;2022-09-28T04:16:30;98256.81;;;8.63;65.54
4570;BME280;2297;51.442;6.996;2022-09-28T04:18:56;98257.66;;;8.63;65.49
4570;BME280;2297;51.442;6.996;2022-09-28T04:21:23;98259.97;;;8.71;65.48
4570;BME280;2297;51.442;6.996;2022-09-28T04:23:50;98269.63;;;8.71;65.63
4570;BME280;2297;51.442;6.996;2022-09-28T04:26:21;98259.41;;;8.84;65.38
4570;BME280;2297;51.442;6.996;2022-09-28T04:28:48;98264.50;;;8.87;65.29
4570;BME280;2297;51.442;6.996;2022-09-28T04:31:37;98267.09;;;8.88;65.10
4570;BME280;2297;51.442;6.996;2022-09-28T04:34:04;98266.22;;;8.88;64.85
4570;BME280;2297;51.442;6.996;2022-09-28T04:36:30;98270.16;;;8.58;65.24
4570;BME280;2297;51.442;6.996;2022-09-28T04:38:57;98269.09;;;8.83;64.98
4570;BME280;2297;51.442;6.996;2022-09-28T04:41:26;98275.84;;;8.89;64.96
4570;BME280;2297;51.442;6.996;2022-09-28T04:43:52;98266.22;;;8.88;64.95
4570;BME280;2297;51.442;6.996;2022-09-28T04:46:19;98264.41;;;8.90;64.98
4570;BME280;2297;51.442;6.996;2022-09-28T04:48:46;98271.00;;;8.98;64.95
4570;BME280;2297;51.442;6.996;2022-09-28T04:51:13;98258.47;;;8.85;64.93
4570;BME280;2297;51.442;6.996;2022-09-28T04:53:39;98267.09;;;8.88;64.72
4570;BME280;2297;51.442;6.996;2022-09-28T04:56:08;98259.22;;;8.88;64.79
4570;BME280;2297;51.442;6.996;2022-09-28T04:58:37;98261.03;;;8.67;65.56
4570;BME280;2297;51.442;6.996;2022-09-28T05:01:06;98263.59;;;8.48;66.44
4570;BME280;2297;51.442;6.996;2022-09-28T05:03:33;98257.09;;;8.57;66.25
4570;BME280;2297;51.442;6.996;2022-09-28T05:06:01;98258.66;;;8.61;66.17
4570;BME280;2297;51.442;6.996;2022-09-28T05:08:28;98256.56;;;8.69;65.99
4570;BME280;2297;51.442;6.996;2022-09-28T05:10:58;98265.88;;;8.76;66.03
4570;BME280;2297;51.442;6.996;2022-09-28T05:13:26;98262.69;;;8.70;65.63
4570;BME280;2297;51.442;6.996;2022-09-28T05:15:54;98259.19;;;8.69;65.68
4570;BME280;2297;51.442;6.996;2022-09-28T05:18:21;98263.38;;;8.73;65.58
4570;BME280;2297;51.442;6.996;2022-09-28T05:20:48;98259.56;;;8.80;65.78
4570;BME280;2297;51.442;6.996;2022-09-28T05:23:15;98268.38;;;8.79;65.53
4570;BME280;2297;51.442;6.996;2022-09-28T05:25:43;98266.88;;;8.74;65.67
4570;BME280;2297;51.442;6.996;2022-09-28T05:28:11;98269.59;;;8.72;65.67
4570;BME280;2297;51.442;6.996;2022-09-28T05:30:37;98259.97;;;8.71;65.59
4570;BME280;2297;51.442;6.996;2022-09-28T05:33:05;98259.56;;;8.80;65.52
4570;BME280;2297;51.442;6.996;2022-09-28T05:35:33;98255.69;;;8.88;65.52
4570;BME280;2297;51.442;6.996;2022-09-28T05:38:02;98255.69;;;8.88;65.42
4570;BME280;2297;51.442;6.996;2022-09-28T05:40:30;98259.13;;;8.90;65.33
4570;BME280;2297;51.442;6.996;2022-09-28T05:43:00;98260.69;;;8.94;65.38
4570;BME280;2297;51.442;6.996;2022-09-28T05:45:27;98259.53;;;9.00;65.22
4570;BME280;2297;51.442;6.996;2022-09-28T05:47:54;98256.78;;;9.03;65.12
4570;BME280;2297;51.442;6.996;2022-09-28T05:50:22;98258.69;;;8.99;65.17
4570;BME280;2297;51.442;6.996;2022-09-28T05:52:57;98255.28;;;8.97;65.20
4570;BME280;2297;51.442;6.996;2022-09-28T05:55:24;98254.06;;;9.04;65.34
4570;BME280;2297;51.442;6.996;2022-09-28T05:57:51;98248.44;;;9.12;65.47
4570;BME280;2297;51.442;6.996;2022-09-28T06:00:17;98253.84;;;9.09;65.24
4570;BME280;2297;51.442;6.996;2022-09-28T06:02:49;98260.47;;;8.79;65.88
4570;BME280;2297;51.442;6.996;2022-09-28T06:05:21;98262.84;;;8.86;65.61
4570;BME280;2297;51.442;6.996;2022-09-28T06:07:48;98265.03;;;8.95;65.56
4570;BME280;2297;51.442;6.996;2022-09-28T06:10:15;98262.75;;;9.06;65.13
4570;BME280;2297;51.442;6.996;2022-09-28T06:12:41;98268.00;;;9.06;65.28
4570;BME280;2297;51.442;6.996;2022-09-28T06:15:09;98269.59;;;8.91;65.47
4570;BME280;2297;51.442;6.996;2022-09-28T06:17:36;98270.50;;;8.90;65.70
4570;BME280;2297;51.442;6.996;2022-09-28T06:20:03;98271.66;;;8.85;66.35
4570;BME280;2297;51.442;6.996;2022-09-28T06:22:31;98277.22;;;8.97;65.82
4570;BME280;2297;51.442;6.996;2022-09-28T06:24:57;98282.66;;;8.93;65.96
4570;BME280;2297;51.442;6.996;2022-09-28T06:27:24;98284.16;;;8.98;66.36
4570;BME280;2297;51.442;6.996;2022-09-28T06:29:51;98284.28;;;9.14;66.72
4570;BME280;2297;51.442;6.996;2022-09-28T06:32:18;98288.72;;;9.14;65.82
4570;BME280;2297;51.442;6.996;2022-09-28T06:34:44;98291.84;;;9.22;65.79
4570;BME280;2297;51.442;6.996;2022-09-28T06:37:11;98295.75;;;8.94;66.26
4570;BME280;2297;51.442;6.996;2022-09-28T06:39:39;98290.28;;;8.99;66.34
4570;BME280;2297;51.442;6.996;2022-09-28T06:42:05;98301.53;;;9.03;66.26
4570;BME280;2297;51.442;6.996;2022-09-28T06:44:32;98303.09;;;8.88;66.11
4570;BME280;2297;51.442;6.996;2022-09-28T06:46:59;98307.19;;;8.74;66.55
4570;BME280;2297;51.442;6.996;2022-09-28T06:49:25;98307.84;;;8.79;66.59
4570;BME280;2297;51.442;6.996;2022-09-28T06:51:54;98315.06;;;8.95;66.39
4570;BME280;2297;51.442;6.996;2022-09-28T06:54:21;98313.19;;;8.97;65.76
4570;BME280;2297;51.442;6.996;2022-09-28T06:56:51;98319.03;;;9.04;65.79
4570;BME280;2297;51.442;6.996;2022-09-28T06:59:18;98315.22;;;9.11;66.75
4570;BME280;2297;51.442;6.996;2022-09-28T07:01:44;98316.63;;;8.99;66.03
4570;BME280;2297;51.442;6.996;2022-09-28T07:04:11;98323.72;;;8.97;65.94
4570;BME280;2297;51.442;6.996;2022-09-28T07:06:37;98321.41;;;8.91;66.07
4570;BME280;2297;51.442;6.996;2022-09-28T07:09:04;98326.28;;;8.79;66.05
4570;BME280;2297;51.442;6.996;2022-09-28T07:11:36;98322.56;;;8.84;65.92
4570;BME280;2297;51.442;6.996;2022-09-28T07:14:05;98331.97;;;8.89;65.84
4570;BME280;2297;51.442;6.996;2022-09-28T07:16:34;98329.28;;;8.91;66.02
4570;BME280;2297;51.442;6.996;2022-09-28T07:19:00;98330.78;;;8.96;65.88
4570;BME280;2297;51.442;6.996;2022-09-28T07:21:27;98331.44;;;9.02;66.20
4570;BME280;2297;51.442;6.996;2022-09-28T07:23:53;98340.94;;;8.85;66.57
4570;BME280;2297;51.442;6.996;2022-09-28T07:26:20;98340.34;;;8.78;66.94
4570;BME280;2297;51.442;6.996;2022-09-28T07:28:47;98344.94;;;8.94;66.72
4570;BME280;2297;51.442;6.996;2022-09-28T07:31:15;98344.38;;;9.06;66.15
4570;BME280;2297;51.442;6.996;2022-09-28T07:33:41;98353.63;;;9.15;65.87
4570;BME280;2297;51.442;6.996;2022-09-28T07:39:29;98350.84;;;8.99;66.10
4570;BME280;2297;51.442;6.996;2022-09-28T07:41:56;98348.06;;;9.02;65.81
4570;BME280;2297;51.442;6.996;2022-09-28T07:44:21;98358.75;;;8.99;65.90
4570;BME280;2297;51.442;6.996;2022-09-28T07:46:50;98354.91;;;9.06;65.81
4570;BME280;2297;51.442;6.996;2022-09-28T07:49:17;98361.50;;;8.96;65.97
4570;BME280;2297;51.442;6.996;2022-09-28T07:51:43;98364.00;;;8.99;66.25
4570;BME280;2297;51.442;6.996;2022-09-28T07:54:10;98366.16;;;8.91;65.97
4570;BME280;2297;51.442;6.996;2022-09-28T07:56:37;98377.84;;;8.84;65.96
4570;BME280;2297;51.442;6.996;2022-09-28T07:59:03;98380.34;;;8.87;65.67
4570;BME280;2297;51.442;6.996;2022-09-28T08:01:30;98382.59;;;8.75;66.16
4570;BME280;2297;51.442;6.996;2022-09-28T08:03:58;98382.72;;;8.93;65.82
4570;BME280;2297;51.442;6.996;2022-09-28T08:06:24;98388.84;;;8.93;66.03
4570;BME280;2297;51.442;6.996;2022-09-28T08:08:51;98380.66;;;9.00;65.63
4570;BME280;2297;51.442;6.996;2022-09-28T08:11:20;98388.38;;;9.04;65.31
4570;BME280;2297;51.442;6.996;2022-09-28T08:13:47;98389.69;;;8.94;65.44
4570;BME280;2297;51.442;6.996;2022-09-28T08:16:13;98392.34;;;9.13;65.00
4570;BME280;2297;51.442;6.996;2022-09-28T08:18:40;98393.56;;;9.25;65.05
4570;BME280;2297;51.442;6.996;2022-09-28T08:21:09;98387.81;;;9.17;65.16
4570;BME280;2297;51.442;6.996;2022-09-28T08:23:54;98390.34;;;8.99;65.42
4570;BME280;2297;51.442;6.996;2022-09-28T08:26:20;98400.16;;;9.14;65.36
4570;BME280;2297;51.442;6.996;2022-09-28T08:28:47;98393.50;;;9.26;64.81
4570;BME280;2297;51.442;6.996;2022-09-28T08:31:13;98398.34;;;9.17;64.99
4570;BME280;2297;51.442;6.996;2022-09-28T08:33:40;98396.66;;;9.35;64.62
4570;BME280;2297;51.442;6.996;2022-09-28T08:36:09;98404.47;;;9.55;64.40
4570;BME280;2297;51.442;6.996;2022-09-28T08:38:36;98406.59;;;9.66;63.90
4570;BME280;2297;51.442;6.996;2022-09-28T08:41:14;98406.47;;;9.69;63.56
4570;BME280;2297;51.442;6.996;2022-09-28T08:43:54;98407.31;;;9.70;63.50
4570;BME280;2297;51.442;6.996;2022-09-28T08:46:25;98419.91;;;9.63;63.04
4570;BME280;2297;51.442;6.996;2022-09-28T08:48:59;98418.00;;;9.47;63.89
4570;BME280;2297;51.442;6.996;2022-09-28T08:51:33;98419.13;;;9.61;63.55
4570;BME280;2297;51.442;6.996;2022-09-28T08:54:04;98419.56;;;9.52;63.69
4570;BME280;2297;51.442;6.996;2022-09-28T08:56:38;98420.56;;;9.68;63.45
4570;BME280;2297;51.442;6.996;2022-09-28T08:59:10;98431.31;;;9.82;63.31
4570;BME280;2297;51.442;6.996;2022-09-28T09:01:41;98427.13;;;9.78;62.85
4570;BME280;2297;51.442;6.996;2022-09-28T09:04:12;98428.81;;;9.98;62.48
4570;BME280;2297;51.442;6.996;2022-09-28T09:06:59;98434.81;;;10.02;62.18
4570;BME280;2297;51.442;6.996;2022-09-28T09:09:37;98435.91;;;10.16;62.28
4570;BME280;2297;51.442;6.996;2022-09-28T09:12:10;98440.75;;;10.25;61.39
4570;BME280;2297;51.442;6.996;2022-09-28T09:18:10;98444.75;;;10.14;60.45
4570;BME280;2297;51.442;6.996;2022-09-28T09:20:46;98446.50;;;10.33;59.76
4570;BME280;2297;51.442;6.996;2022-09-28T09:23:19;98447.50;;;9.94;60.16
4570;BME280;2297;51.442;6.996;2022-09-28T09:25:57;98453.78;;;10.45;59.96
4570;BME280;2297;51.442;6.996;2022-09-28T09:31:32;98453.56;;;10.50;59.26
4570;BME280;2297;51.442;6.996;2022-09-28T09:41:04;98460.19;;;10.76;57.58
4570;BME280;2297;51.442;6.996;2022-09-28T09:43:48;98455.97;;;10.90;57.59
4570;BME280;2297;51.442;6.996;2022-09-28T09:46:29;98452.50;;;11.05;57.32
4570;BME280;2297;51.442;6.996;2022-09-28T09:49:02;98460.91;;;11.31;57.22
4570;BME280;2297;51.442;6.996;2022-09-28T09:52:09;98452.13;;;11.46;56.33
4570;BME280;2297;51.442;6.996;2022-09-28T09:54:43;98463.53;;;11.31;56.08
4570;BME280;2297;51.442;6.996;2022-09-28T09:57:15;98455.53;;;11.33;55.89
4570;BME280;2297;51.442;6.996;2022-09-28T09:59:43;98457.81;;;11.05;56.96
4570;BME280;2297;51.442;6.996;2022-09-28T10:02:21;98460.06;;;11.13;56.63
4570;BME280;2297;51.442;6.996;2022-09-28T10:04:49;98456.81;;;10.90;57.55
4570;BME280;2297;51.442;6.996;2022-09-28T10:07:22;98464.03;;;10.87;57.75
4570;BME280;2297;51.442;6.996;2022-09-28T10:09:53;98459.31;;;10.76;57.91
4570;BME280;2297;51.442;6.996;2022-09-28T10:12:23;98462.88;;;10.92;57.97
4570;BME280;2297;51.442;6.996;2022-09-28T10:14:49;98455.19;;;10.88;57.89
4570;BME280;2297;51.442;6.996;2022-09-28T10:17:18;98463.72;;;10.93;57.47
4570;BME280;2297;51.442;6.996;2022-09-28T10:19:51;98464.03;;;10.87;57.44
4570;BME280;2297;51.442;6.996;2022-09-28T10:22:23;98464.97;;;10.68;57.67
4570;BME280;2297;51.442;6.996;2022-09-28T10:24:53;98460.00;;;10.79;57.42
4570;BME280;2297;51.442;6.996;2022-09-28T10:27:26;98467.78;;;10.82;57.44
4570;BME280;2297;51.442;6.996;2022-09-28T10:29:55;98476.16;;;10.91;57.62
4570;BME280;2297;51.442;6.996;2022-09-28T10:32:26;98468.72;;;11.17;57.21
4570;BME280;2297;51.442;6.996;2022-09-28T10:35:11;98473.66;;;11.23;56.56
4570;BME280;2297;51.442;6.996;2022-09-28T10:37:47;98476.59;;;11.34;56.57
4570;BME280;2297;51.442;6.996;2022-09-28T10:40:39;98469.06;;;11.09;56.59
4570;BME280;2297;51.442;6.996;2022-09-28T10:43:17;98470.25;;;11.03;56.62
4570;BME280;2297;51.442;6.996;2022-09-28T10:45:47;98478.78;;;11.08;57.07
4570;BME280;2297;51.442;6.996;2022-09-28T10:48:17;98476.72;;;11.15;56.35
4570;BME280;2297;51.442;6.996;2022-09-28T10:51:18;98479.06;;;11.37;55.27
4570;BME280;2297;51.442;6.996;2022-09-28T10:53:58;98476.72;;;11.64;54.48
4570;BME280;2297;51.442;6.996;2022-09-28T10:56:27;98469.59;;;11.83;53.82
4570;BME280;2297;51.442;6.996;2022-09-28T10:58:57;98468.81;;;11.96;53.40
4570;BME280;2297;51.442;6.996;2022-09-28T11:01:27;98461.78;;;12.11;52.49
4570;BME280;2297;51.442;6.996;2022-09-28T11:03:58;98471.63;;;12.09;52.63
4570;BME280;2297;51.442;6.996;2022-09-28T11:06:27;98469.25;;;12.21;52.46
4570;BME280;2297;51.442;6.996;2022-09-28T11:08:56;98466.94;;;12.14;52.61
4570;BME280;2297;51.442;6.996;2022-09-28T11:11:24;98469.75;;;11.95;53.23
4570;BME280;2297;51.442;6.996;2022-09-28T11:13:52;98468.91;;;11.95;53.29
4570;BME280;2297;51.442;6.996;2022-09-28T11:16:28;98473.00;;;11.85;53.36
4570;BME280;2297;51.442;6.996;2022-09-28T11:18:57;98471.97;;;11.71;53.26
4570;BME280;2297;51.442;6.996;2022-09-28T11:21:26;98471.44;;;12.12;52.81
4570;BME280;2297;51.442;6.996;2022-09-28T11:23:55;98472.03;;;12.18;52.58
4570;BME280;2297;51.442;6.996;2022-09-28T11:26:23;98474.00;;;12.14;52.95
4570;BME280;2297;51.442;6.996;2022-09-28T11:28:50;98471.25;;;12.15;53.02
4570;BME280;2297;51.442;6.996;2022-09-28T11:31:23;98474.38;;;11.92;54.17
4570;BME280;2297;51.442;6.996;2022-09-28T11:34:02;98475.72;;;12.15;53.96
4570;BME280;2297;51.442;6.996;2022-09-28T11:36:42;98480.31;;;12.11;53.71
4570;BME280;2297;51.442;6.996;2022-09-28T11:39:18;98482.22;;;12.09;54.48
4570;BME280;2297;51.442;6.996;2022-09-28T11:42:00;98476.00;;;12.10;54.34
4570;BME280;2297;51.442;6.996;2022-09-28T11:44:39;98478.13;;;12.04;53.35
4570;BME280;2297;51.442;6.996;2022-09-28T11:47:20;98479.47;;;11.95;53.72
4570;BME280;2297;51.442;6.996;2022-09-28T11:49:57;98483.56;;;11.85;54.36
4570;BME280;2297;51.442;6.996;2022-09-28T11:52:29;98484.59;;;11.82;54.49
4570;BME280;2297;51.442;6.996;2022-09-28T11:55:05;98477.25;;;11.87;54.72
4570;BME280;2297;51.442;6.996;2022-09-28T11:57:39;98479.56;;;11.93;54.79
4570;BME280;2297;51.442;6.996;2022-09-28T12:00:12;98485.28;;;12.02;55.35
4570;BME280;2297;51.442;6.996;2022-09-28T12:02:44;98480.00;;;11.86;55.70
4570;BME280;2297;51.442;6.996;2022-09-28T12:05:19;98470.63;;;11.96;55.84
4570;BME280;2297;51.442;6.996;2022-09-28T12:07:49;98481.53;;;11.90;56.19
4570;BME280;2297;51.442;6.996;2022-09-28T12:10:22;98477.94;;;12.07;55.87
4570;BME280;2297;51.442;6.996;2022-09-28T12:12:57;98477.06;;;12.06;56.13
4570;BME280;2297;51.442;6.996;2022-09-28T12:15:31;98478.97;;;12.04;55.86
4570;BME280;2297;51.442;6.996;2022-09-28T12:18:01;98473.91;;;12.00;55.86
4570;BME280;2297;51.442;6.996;2022-09-28T12:20:32;98478.44;;;12.13;55.93
4570;BME280;2297;51.442;6.996;2022-09-28T12:23:06;98472.66;;;12.23;55.25
4570;BME280;2297;51.442;6.996;2022-09-28T12:25:38;98481.84;;;12.15;55.40
4570;BME280;2297;51.442;6.996;2022-09-28T12:28:10;98472.31;;;12.29;55.29
4570;BME280;2297;51.442;6.996;2022-09-28T12:30:38;98467.88;;;12.29;54.87
4570;BME280;2297;51.442;6.996;2022-09-28T12:33:10;98468.88;;;12.43;54.55
4570;BME280;2297;51.442;6.996;2022-09-28T12:35:52;98466.91;;;12.46;54.81
4570;BME280;2297;51.442;6.996;2022-09-28T12:38:37;98459.66;;;12.34;55.07
4570;BME280;2297;51.442;6.996;2022-09-28T12:41:13;98465.81;;;12.35;55.00
4570;BME280;2297;51.442;6.996;2022-09-28T12:43:57;98459.66;;;12.34;55.18
4570;BME280;2297;51.442;6.996;2022-09-28T12:46:45;98458.59;;;12.53;55.37
4570;BME280;2297;51.442;6.996;2022-09-28T12:52:43;98468.84;;;12.59;54.38
4570;BME280;2297;51.442;6.996;2022-09-28T12:55:24;98467.75;;;12.77;53.44
4570;BME280;2297;51.442;6.996;2022-09-28T12:57:59;98467.06;;;12.74;53.57
4570;BME280;2297;51.442;6.996;2022-09-28T13:00:34;98471.88;;;12.67;52.79
4570;BME280;2297;51.442;6.996;2022-09-28T13:03:20;98469.41;;;12.18;52.57
4570;BME280;2297;51.442;6.996;2022-09-28T13:06:19;98472.94;;;12.48;52.72
4570;BME280;2297;51.442;6.996;2022-09-28T13:09:02;98470.50;;;12.45;53.33
4570;BME280;2297;51.442;6.996;2022-09-28T13:11:34;98466.66;;;12.35;54.00
4570;BME280;2297;51.442;6.996;2022-09-28T13:14:20;98462.75;;;12.42;55.19
4570;BME280;2297;51.442;6.996;2022-09-28T13:16:57;98463.03;;;12.52;55.82
4570;BME280;2297;51.442;6.996;2022-09-28T13:19:31;98455.59;;;12.59;56.22
4570;BME280;2297;51.442;6.996;2022-09-28T13:22:12;98460.00;;;12.74;57.03
4570;BME280;2297;51.442;6.996;2022-09-28T13:24:44;98456.72;;;13.00;56.36
4570;BME280;2297;51.442;6.996;2022-09-28T13:27:15;98458.59;;;13.42;56.66
4570;BME280;2297;51.442;6.996;2022-09-28T13:29:44;98453.78;;;13.91;56.76
4570;BME280;2297;51.442;6.996;2022-09-28T13:32:14;98450.63;;;14.40;54.27
4570;BME280;2297;51.442;6.996;2022-09-28T13:34:46;98454.94;;;14.82;51.46
4570;BME280;2297;51.442;6.996;2022-09-28T13:37:22;98448.06;;;15.05;49.51
4570;BME280;2297;51.442;6.996;2022-09-28T13:39:52;98447.22;;;15.43;48.85
4570;BME280;2297;51.442;6.996;2022-09-28T13:42:48;98443.78;;;15.54;47.56
4570;BME280;2297;51.442;6.996;2022-09-28T13:45:31;98446.88;;;15.60;47.41
4570;BME280;2297;51.442;6.996;2022-09-28T13:48:10;98445.63;;;15.02;47.92
4570;BME280;2297;51.442;6.996;2022-09-28T13:50:52;98450.50;;;14.95;47.37
4570;BME280;2297;51.442;6.996;2022-09-28T13:53:27;98456.63;;;14.70;48.08
4570;BME280;2297;51.442;6.996;2022-09-28T13:56:03;98457.69;;;14.67;47.83
4570;BME280;2297;51.442;6.996;2022-09-28T13:58:43;98460.06;;;14.44;48.34
4570;BME280;2297;51.442;6.996;2022-09-28T14:01:15;98461.97;;;14.42;48.72
4570;BME280;2297;51.442;6.996;2022-09-28T14:03:53;98464.50;;;14.17;48.61
4570;BME280;2297;51.442;6.996;2022-09-28T14:06:28;98465.94;;;14.08;49.75
4570;BME280;2297;51.442;6.996;2022-09-28T14:11:56;98469.16;;;13.86;50.41
4570;BME280;2297;51.442;6.996;2022-09-28T14:14:25;98472.38;;;13.76;51.39